Time;durP1;ratioP1;P1;durP2;ratioP2;P2;SDS_P1;SDS_P2;PMS_P1;PMS_P2;Temp;Humidity;BMP_temperature;BMP_pressure;BME280_temperature;BME280_humidity;BME280_pressure;Samples;Min_cycle;Max_cycle;Signal;HPM_P1;HPM_P2
2022/06/09 00:00:10;;;;;;;10.35;6.00;;;14.20;99.90;;;13.29;100.00;96800.03;5032302;28;20458;-76
2022/06/09 00:02:37;;;;;;;12.35;6.07;;;14.20;99.90;;;13.36;100.00;96797.81;5032646;28;20487;-76
2022/06/09 00:05:05;;;;;;;13.23;6.13;;;14.20;99.90;;;13.33;100.00;96805.56;5032464;28;20756;-76
2022/06/09 00:07:32;;;;;;;9.43;5.32;;;14.20;99.90;;;13.33;100.00;96811.66;5032434;28;20403;-76
2022/06/09 00:10:03;;;;;;;9.93;5.60;;;14.30;99.90;;;13.36;100.00;96816.44;5030819;28;20864;-76
2022/06/09 00:12:30;;;;;;;8.38;5.32;;;14.30;99.90;;;13.37;100.00;96814.56;5032639;28;20442;-76
2022/06/09 00:14:57;;;;;;;8.82;5.30;;;14.30;99.90;;;13.35;100.00;96816.72;5030906;28;20811;-76
2022/06/09 00:17:24;;;;;;;9.60;5.65;;;14.30;99.90;;;13.37;100.00;96822.53;5032380;28;20915;-76
2022/06/09 00:19:51;;;;;;;9.45;5.10;;;14.30;99.90;;;13.37;100.00;96827.84;5030635;28;20908;-76
2022/06/09 00:22:17;;;;;;;7.95;5.00;;;14.30;99.90;;;13.40;100.00;96829.94;5030869;28;20832;-76
2022/06/09 00:24:43;;;;;;;8.20;5.10;;;14.30;99.90;;;13.38;100.00;96829.44;5044199;28;20926;-76
2022/06/09 00:27:09;;;;;;;9.32;5.05;;;14.30;99.90;;;13.41;100.00;96826.19;5067514;28;20405;-76
2022/06/09 00:29:36;;;;;;;8.38;5.22;;;14.30;99.90;;;13.38;100.00;96838.19;5050369;28;20409;-76
2022/06/09 00:32:04;;;;;;;8.55;5.00;;;14.30;99.90;;;13.39;100.00;96838.97;5050664;28;20806;-76
2022/06/09 00:34:30;;;;;;;7.60;4.97;;;14.30;99.90;;;13.42;100.00;96843.75;5050459;28;20424;-76
2022/06/09 00:36:55;;;;;;;7.53;4.73;;;14.30;99.90;;;13.42;100.00;96843.75;5051818;28;20409;-76
2022/06/09 00:39:21;;;;;;;7.65;4.80;;;14.40;99.90;;;13.45;100.00;96843.19;5051578;28;20412;-76
2022/06/09 00:41:47;;;;;;;9.60;4.70;;;14.40;99.90;;;13.51;100.00;96842.06;5051671;28;20421;-76
2022/06/09 00:44:18;;;;;;;9.57;4.82;;;14.40;99.90;;;13.46;100.00;96839.44;5051687;28;20500;-76
2022/06/09 00:46:47;;;;;;;8.15;4.97;;;14.40;99.90;;;13.46;100.00;96842.88;5051514;28;20394;-76
2022/06/09 00:49:22;;;;;;;8.03;4.60;;;14.40;99.90;;;13.50;100.00;96841.25;5051210;28;20400;-76
2022/06/09 00:51:54;;;;;;;7.95;4.57;;;14.50;99.90;;;13.47;100.00;96833.84;5051482;28;20397;-76
2022/06/09 00:54:27;;;;;;;6.50;4.53;;;14.40;99.90;;;13.42;100.00;96833.09;5051412;28;20418;-76
2022/06/09 00:57:01;;;;;;;20.35;5.15;;;14.40;99.90;;;13.38;100.00;96838.19;5051344;28;20763;-76
2022/06/09 00:59:28;;;;;;;20.15;6.50;;;14.40;99.90;;;13.34;100.00;96837.19;5051141;28;20401;-76
2022/06/09 01:01:57;;;;;;;16.65;6.50;;;14.40;99.90;;;13.35;100.00;96838.75;5051280;28;20413;-76
2022/06/09 01:04:26;;;;;;;49.17;7.43;;;14.30;99.90;;;13.35;100.00;96848.59;5051173;28;20934;-76
2022/06/09 01:06:56;;;;;;;44.47;6.77;;;14.30;99.90;;;13.19;100.00;96842.66;5051009;28;20417;-76
2022/06/09 01:09:25;;;;;;;15.40;4.85;;;14.20;99.90;;;13.07;100.00;96843.00;5051096;28;20437;-76
2022/06/09 01:11:54;;;;;;;25.02;5.78;;;14.10;99.90;;;13.08;100.00;96839.25;5051102;28;20441;-75
2022/06/09 01:14:24;;;;;;;54.83;6.28;;;14.20;99.90;;;12.99;100.00;96830.31;5051112;28;20402;-75
2022/06/09 01:17:02;;;;;;;19.30;5.45;;;14.10;99.90;;;12.92;100.00;96835.16;5051009;28;20413;-76
2022/06/09 01:19:58;;;;;;;21.80;5.10;;;14.00;99.90;;;12.85;100.00;96831.25;5050642;28;20409;-75
2022/06/09 01:22:49;;;;;;;9.25;4.30;;;13.90;99.90;;;12.75;100.00;96830.25;5044237;28;20408;-76
2022/06/09 01:26:32;;;;;;;9.65;4.32;;;13.80;99.90;;;12.78;100.00;96836.84;5050713;28;20397;-76
2022/06/09 01:29:38;;;;;;;10.27;4.50;;;13.80;99.90;;;12.75;100.00;96840.09;4969510;28;20521;-76
2022/06/09 01:32:11;;;;;;;8.10;4.00;;;13.80;99.90;;;12.71;100.00;96839.81;4989282;28;20460;-75
2022/06/09 01:34:45;;;;;;;10.80;4.25;;;13.70;99.90;;;12.70;100.00;96840.13;5044696;28;20408;-76
2022/06/09 01:37:15;;;;;;;20.10;5.13;;;13.70;99.90;;;12.70;100.00;96848.09;5050816;28;20899;-76
2022/06/09 01:39:49;;;;;;;12.23;5.18;;;13.80;99.90;;;12.65;100.00;96848.91;5050312;28;20813;-75
2022/06/09 01:42:35;;;;;;;13.93;5.38;;;13.70;99.90;;;12.61;100.00;96850.53;5050628;28;20798;-76
2022/06/09 01:45:07;;;;;;;9.98;4.80;;;13.60;99.90;;;12.56;100.00;96849.78;5050543;28;20404;-75
2022/06/09 01:47:43;;;;;;;21.02;5.63;;;13.60;99.90;;;12.54;100.00;96854.59;5050689;28;20425;-76
2022/06/09 01:50:17;;;;;;;17.08;5.28;;;13.60;99.90;;;12.53;100.00;96850.34;5050157;28;20397;-75
2022/06/09 01:52:45;;;;;;;15.18;5.97;;;13.60;99.90;;;12.52;100.00;96854.06;5050539;28;20396;-76
2022/06/09 01:55:17;;;;;;;12.00;5.38;;;13.50;99.90;;;12.53;100.00;96853.78;5050391;28;20408;-76
2022/06/09 01:57:47;;;;;;;12.50;5.85;;;13.50;99.90;;;12.56;100.00;96853.22;5050486;28;20401;-76
2022/06/09 02:00:17;;;;;;;14.68;6.05;;;13.60;99.90;;;12.58;100.00;96861.72;5049932;28;20512;-75
2022/06/09 02:02:49;;;;;;;15.25;6.50;;;13.60;99.90;;;12.60;100.00;96858.78;5050475;28;20405;-75
2022/06/09 02:05:21;;;;;;;20.65;8.07;;;13.60;99.90;;;12.56;100.00;96855.06;5050164;28;20397;-75
2022/06/09 02:07:48;;;;;;;18.50;7.13;;;13.60;99.90;;;12.53;100.00;96856.44;5050375;28;20393;-76
2022/06/09 02:10:20;;;;;;;17.52;7.60;;;13.60;99.90;;;12.52;100.00;96854.06;5049380;28;20402;-76
2022/06/09 02:12:48;;;;;;;21.92;8.13;;;13.50;99.90;;;12.56;100.00;96852.41;5050392;28;20408;-75
2022/06/09 02:15:23;;;;;;;21.48;7.90;;;13.60;99.90;;;12.51;100.00;96855.91;5050124;28;20412;-76
2022/06/09 02:17:52;;;;;;;24.52;8.95;;;13.50;99.90;;;12.59;100.00;96851.88;5050235;28;20402;-76
2022/06/09 02:20:22;;;;;;;18.88;8.10;;;13.50;99.90;;;12.41;100.00;96851.47;5049744;28;20425;-75
2022/06/09 02:22:48;;;;;;;22.55;8.88;;;13.50;99.90;;;12.46;100.00;96853.31;5050317;28;20581;-76
2022/06/09 02:25:15;;;;;;;23.85;9.18;;;13.40;99.90;;;12.40;100.00;96851.75;5065308;28;20508;-76
2022/06/09 02:27:41;;;;;;;24.42;8.50;;;13.40;99.90;;;12.40;100.00;96854.41;5050156;28;20415;-75
2022/06/09 02:30:11;;;;;;;22.55;8.65;;;13.50;99.90;;;12.36;100.00;96858.66;5049799;28;20410;-75
2022/06/09 02:32:36;;;;;;;22.58;8.73;;;13.40;99.90;;;12.34;100.00;96860.78;5048912;28;20415;-76
2022/06/09 02:35:06;;;;;;;21.20;9.30;;;13.40;99.90;;;12.30;100.00;96859.78;5050026;28;20409;-76
2022/06/09 02:37:32;;;;;;;25.23;9.32;;;13.30;99.90;;;12.27;100.00;96861.09;5050033;28;20489;-76
2022/06/09 02:39:58;;;;;;;19.70;8.77;;;13.30;99.90;;;12.27;100.00;96865.63;5065035;28;20884;-76
2022/06/09 02:42:24;;;;;;;25.73;9.52;;;13.30;99.90;;;12.32;100.00;96862.94;5050012;28;20423;-76
2022/06/09 02:44:51;;;;;;;30.10;10.30;;;13.30;99.90;;;12.24;100.00;96859.00;5049819;28;20423;-76
2022/06/09 02:47:17;;;;;;;28.85;10.10;;;13.30;99.90;;;12.26;100.00;96854.19;5049996;28;20401;-76
2022/06/09 02:49:44;;;;;;;21.87;9.70;;;13.30;99.90;;;12.22;100.00;96861.13;5049800;28;20961;-76
2022/06/09 02:52:12;;;;;;;30.20;10.33;;;13.30;99.90;;;12.25;100.00;96868.56;5049886;28;20401;-75
2022/06/09 02:54:37;;;;;;;23.27;9.70;;;13.30;99.90;;;12.24;100.00;96864.31;5049848;28;20481;-76
2022/06/09 02:57:04;;;;;;;32.80;11.13;;;13.30;99.90;;;12.25;100.00;96870.41;5049984;28;20451;-76
2022/06/09 02:59:30;;;;;;;34.40;11.50;;;13.30;99.90;;;12.22;100.00;96870.97;5049635;28;20771;-76
2022/06/09 03:01:56;;;;;;;28.25;10.38;;;13.30;99.90;;;12.12;100.00;96878.97;5049663;28;20419;-76
2022/06/09 03:04:22;;;;;;;31.30;10.98;;;13.20;99.90;;;12.07;100.00;96884.31;5049715;28;20393;-76
2022/06/09 03:06:48;;;;;;;25.00;9.93;;;13.10;99.90;;;12.02;100.00;96887.78;5049714;28;20405;-76
2022/06/09 03:09:16;;;;;;;36.38;11.55;;;13.10;99.90;;;12.12;100.00;96879.75;5049429;28;20891;-75
2022/06/09 03:11:42;;;;;;;31.05;11.45;;;13.10;99.90;;;12.07;100.00;96893.06;5065075;28;20791;-75
2022/06/09 03:14:10;;;;;;;29.65;11.27;;;13.10;99.90;;;12.08;100.00;96885.88;5049678;28;20397;-76
2022/06/09 03:16:36;;;;;;;31.42;12.27;;;13.10;99.90;;;12.16;100.00;96893.28;5065020;28;20447;-76
2022/06/09 03:19:03;;;;;;;33.75;11.43;;;13.20;99.90;;;12.10;100.00;96892.53;5049251;28;20492;-76
2022/06/09 03:21:29;;;;;;;33.15;11.75;;;13.10;99.90;;;12.12;100.00;96892.22;5049585;28;20821;-76
2022/06/09 03:23:57;;;;;;;31.50;11.70;;;13.20;99.90;;;12.16;100.00;96887.97;5052646;28;20409;-76
2022/06/09 03:26:24;;;;;;;36.15;13.20;;;13.20;99.90;;;12.21;100.00;96895.91;5053338;28;20397;-76
2022/06/09 03:28:51;;;;;;;36.13;12.88;;;13.20;99.90;;;12.24;100.00;96898.81;5068303;28;20767;-75
2022/06/09 03:31:18;;;;;;;32.70;12.90;;;13.20;99.90;;;12.23;100.00;96899.09;5053056;28;20424;-76
2022/06/09 03:33:44;;;;;;;31.23;12.75;;;13.20;99.90;;;12.20;100.00;96910.22;5053005;28;20401;-75
2022/06/09 03:36:10;;;;;;;39.03;13.90;;;13.20;99.90;;;12.28;100.00;96904.34;5053054;28;20705;-76
2022/06/09 03:38:40;;;;;;;42.88;14.52;;;13.20;99.90;;;12.30;100.00;96911.00;5052765;28;20402;-76
2022/06/09 03:41:07;;;;;;;44.03;15.00;;;13.30;99.90;;;12.27;100.00;96908.88;5053033;28;20421;-76
2022/06/09 03:43:35;;;;;;;41.63;14.87;;;13.30;99.90;;;12.33;100.00;96912.28;5052959;28;20474;-75
2022/06/09 03:46:02;;;;;;;46.53;14.75;;;13.40;99.90;;;12.30;100.00;96907.53;5052888;28;20401;-76
2022/06/09 03:48:28;;;;;;;43.73;14.57;;;13.30;99.90;;;12.23;100.00;96922.97;5052629;28;20442;-76
2022/06/09 03:50:54;;;;;;;42.05;15.25;;;13.30;99.90;;;12.23;100.00;96921.09;5052701;28;20524;-75
2022/06/09 03:53:21;;;;;;;38.28;15.00;;;13.30;99.90;;;12.24;100.00;96925.34;5052470;28;20487;-76
2022/06/09 03:55:47;;;;;;;49.30;15.97;;;13.20;99.90;;;12.21;100.00;96928.53;5052619;28;20881;-76
2022/06/09 03:58:13;;;;;;;49.42;16.40;;;13.20;99.90;;;12.21;100.00;96925.09;5052269;28;20397;-76
2022/06/09 04:00:40;;;;;;;42.72;15.90;;;13.20;99.90;;;12.22;100.00;96932.78;5052318;28;20462;-76
2022/06/09 04:03:06;;;;;;;44.67;16.00;;;13.20;99.90;;;12.22;100.00;96937.28;5052370;28;20410;-76
2022/06/09 04:05:33;;;;;;;53.73;17.30;;;13.20;99.90;;;12.21;100.00;96939.16;5052391;28;20758;-76
2022/06/09 04:08:00;;;;;;;47.53;16.02;;;13.20;99.90;;;12.23;100.00;96941.53;5052331;28;20401;-76
2022/06/09 04:10:30;;;;;;;45.30;16.58;;;13.20;99.90;;;12.20;100.00;96942.88;5052222;28;20767;-76
2022/06/09 04:12:56;;;;;;;48.85;17.45;;;13.20;99.90;;;12.27;100.00;96942.56;5052255;28;20393;-76
2022/06/09 04:15:23;;;;;;;47.97;17.55;;;13.20;99.90;;;12.28;100.00;96944.16;5052199;28;20816;-76
2022/06/09 04:17:54;;;;;;;52.65;17.80;;;13.20;99.90;;;12.24;100.00;96949.25;5052291;28;20481;-76
2022/06/09 04:20:24;;;;;;;50.88;16.60;;;13.20;99.90;;;12.29;100.00;96951.84;5051743;28;20417;-76
2022/06/09 04:22:50;;;;;;;49.72;17.83;;;13.30;99.90;;;12.28;100.00;96950.28;5052242;28;20409;-76
2022/06/09 04:25:17;;;;;;;52.03;17.92;;;13.30;99.90;;;12.28;100.00;96952.13;5051884;28;20428;-76
2022/06/09 04:27:43;;;;;;;49.00;16.67;;;13.30;99.90;;;12.30;100.00;96948.16;5052036;28;20401;-75
2022/06/09 04:30:11;;;;;;;57.97;18.92;;;13.30;99.90;;;12.32;100.00;96959.28;5051553;28;20468;-76
2022/06/09 04:32:37;;;;;;;43.38;16.33;;;13.30;99.90;;;12.33;100.00;96960.84;5050188;28;20919;-76
2022/06/09 04:35:06;;;;;;;50.80;17.47;;;13.30;99.90;;;12.32;100.00;96959.28;5051720;28;20759;-76
2022/06/09 04:40:16;;;;;;;49.10;17.05;;;13.20;99.90;;;12.20;100.00;96972.06;5051450;28;20397;-76
2022/06/09 04:42:42;;;;;;;48.40;16.60;;;13.20;99.90;;;12.18;100.00;96973.41;5051703;28;20401;-77
2022/06/09 04:45:09;;;;;;;51.93;17.03;;;13.20;99.90;;;12.17;100.00;96980.59;5051661;28;20759;-76
2022/06/09 04:47:35;;;;;;;54.17;17.20;;;13.20;99.90;;;12.14;100.00;96980.31;5051686;28;20654;-76
2022/06/09 04:50:02;;;;;;;53.63;17.70;;;13.20;99.90;;;12.11;100.00;96981.63;5051245;28;20891;-76
2022/06/09 04:52:29;;;;;;;45.53;16.52;;;13.10;99.90;;;11.99;100.00;96984.59;5051634;28;20434;-76
2022/06/09 04:54:56;;;;;;;52.83;16.27;;;13.10;99.90;;;11.98;100.00;96984.88;5051583;28;20449;-76
2022/06/09 04:57:22;;;;;;;49.53;16.90;;;13.10;99.90;;;11.95;100.00;96985.41;5051836;28;20447;-76
2022/06/09 04:59:48;;;;;;;52.38;16.23;;;13.00;99.90;;;11.95;100.00;96988.06;5051062;28;20401;-76
2022/06/09 05:02:15;;;;;;;56.53;17.42;;;13.00;99.90;;;11.92;100.00;96993.91;5051396;28;20399;-76
2022/06/09 05:04:41;;;;;;;47.10;16.45;;;13.00;99.90;;;11.85;100.00;96990.72;5051413;28;21120;-75
2022/06/09 05:07:07;;;;;;;45.70;17.52;;;12.90;99.90;;;11.84;100.00;96997.91;5051581;28;20695;-76
2022/06/09 05:09:34;;;;;;;50.00;17.90;;;12.80;99.90;;;11.81;100.00;97003.72;5050867;28;20493;-76
2022/06/09 05:12:01;;;;;;;53.97;17.77;;;12.80;99.90;;;11.77;100.00;96994.72;5051401;28;20488;-76
2022/06/09 05:14:27;;;;;;;46.70;17.23;;;12.80;99.90;;;11.79;100.00;96999.78;5051240;28;20402;-76
2022/06/09 05:16:53;;;;;;;51.00;17.92;;;12.80;99.90;;;11.79;100.00;97002.41;5051197;28;20947;-76
2022/06/09 05:19:19;;;;;;;51.50;17.25;;;12.80;99.90;;;11.76;100.00;97005.59;5050749;28;20395;-76
2022/06/09 05:21:45;;;;;;;57.20;18.15;;;12.80;99.90;;;11.77;100.00;97010.63;5049429;28;20424;-76
2022/06/09 05:24:11;;;;;;;55.60;19.55;;;12.80;99.90;;;11.84;100.00;97013.81;5075125;22;20940;-74
2022/06/09 05:26:39;;;;;;;51.03;18.27;;;12.80;99.90;;;11.90;100.00;97017.25;5082426;28;20484;-75
2022/06/09 05:29:04;;;;;;;52.92;18.83;;;12.90;99.90;;;11.90;100.00;97019.88;5082216;28;20398;-74
2022/06/09 05:31:30;;;;;;;62.45;20.67;;;12.90;99.90;;;11.93;100.00;97014.06;5090967;28;20401;-74
2022/06/09 05:33:56;;;;;;;52.00;19.35;;;12.90;99.90;;;12.00;100.00;97014.56;5090871;28;20875;-75
2022/06/09 05:36:22;;;;;;;56.92;19.73;;;13.00;99.90;;;12.01;100.00;97029.44;5091001;28;20409;-74
2022/06/09 05:47:04;;;;;;;53.45;20.02;;;13.10;99.90;;;12.23;100.00;97040.53;5090746;28;20903;-75
2022/06/09 05:49:33;;;;;;;57.85;20.65;;;13.20;99.90;;;12.24;100.00;97025.41;5090435;28;20860;-74
2022/06/09 05:51:59;;;;;;;66.50;21.10;;;13.20;99.90;;;12.27;100.00;97033.59;5090643;28;20871;-75
2022/06/09 05:54:24;;;;;;;56.17;20.73;;;13.20;99.90;;;12.26;100.00;97036.50;5082640;28;20409;-75
2022/06/09 05:56:50;;;;;;;55.25;18.70;;;13.20;99.90;;;12.34;100.00;97043.94;5082014;28;20416;-76
2022/06/09 05:59:17;;;;;;;61.38;21.45;;;13.30;99.90;;;12.37;100.00;97038.09;5090192;28;20447;-75
2022/06/09 06:01:44;;;;;;;52.55;19.23;;;13.30;99.90;;;12.40;100.00;97045.53;5090472;28;20406;-75
2022/06/09 06:04:10;;;;;;;57.57;20.47;;;13.30;99.90;;;12.45;100.00;97053.47;5090568;28;20629;-75
2022/06/09 06:06:36;;;;;;;55.55;19.83;;;13.40;99.90;;;12.46;100.00;97046.28;5089141;28;20787;-75
2022/06/09 06:09:05;;;;;;;57.70;20.20;;;13.40;99.90;;;12.45;100.00;97050.81;5090260;28;20450;-75
2022/06/09 06:11:32;;;;;;;49.90;19.00;;;13.40;99.90;;;12.49;100.00;97059.81;5089228;28;20737;-75
2022/06/09 06:13:58;;;;;;;49.45;20.25;;;13.40;99.90;;;12.50;100.00;97056.09;5090404;28;20855;-75
2022/06/09 06:16:25;;;;;;;50.28;19.35;;;13.40;99.90;;;12.55;100.00;97060.59;5090326;28;20428;-75
2022/06/09 06:18:52;;;;;;;52.42;19.77;;;13.50;99.90;;;12.54;100.00;97057.16;5077686;28;20400;-76
2022/06/09 06:21:19;;;;;;;54.65;19.55;;;13.50;99.90;;;12.60;100.00;97057.91;5062187;28;20928;-76
2022/06/09 06:23:45;;;;;;;50.13;18.42;;;13.50;99.90;;;12.71;100.00;97062.91;5063986;28;20469;-75
2022/06/09 06:26:12;;;;;;;48.70;18.73;;;13.60;99.90;;;12.78;100.00;97059.94;5066617;28;20399;-76
2022/06/09 06:28:38;;;;;;;48.67;18.80;;;13.70;99.90;;;12.81;100.00;97059.41;5069858;28;20789;-76
2022/06/09 06:31:04;;;;;;;49.17;18.45;;;13.70;99.90;;;12.82;100.00;97071.63;5070169;28;20842;-77
2022/06/09 06:33:30;;;;;;;46.72;17.67;;;13.70;99.90;;;12.80;100.00;97068.44;5070020;28;20415;-77
2022/06/09 06:35:57;;;;;;;48.42;18.00;;;13.80;99.90;;;12.89;100.00;97084.63;5068619;28;20472;-78
2022/06/09 06:38:23;;;;;;;43.60;17.13;;;13.80;99.90;;;12.94;100.00;97076.63;5069782;28;20489;-76
2022/06/09 06:40:50;;;;;;;45.03;17.17;;;13.80;99.90;;;12.92;100.00;97084.09;5066553;28;20927;-76
2022/06/09 06:43:16;;;;;;;47.70;17.65;;;13.90;99.90;;;12.92;100.00;97076.13;5063624;28;20416;-78
2022/06/09 06:45:43;;;;;;;44.35;16.35;;;13.90;99.90;;;12.93;100.00;97075.81;5066911;28;20400;-77
2022/06/09 06:48:10;;;;;;;34.17;14.23;;;13.80;99.90;;;13.05;100.00;97091.44;5050352;28;20416;-76
2022/06/09 06:50:36;;;;;;;43.65;15.70;;;13.90;99.90;;;13.01;100.00;97096.50;5065008;28;21020;-76
2022/06/09 06:53:03;;;;;;;35.87;14.60;;;13.90;99.90;;;13.11;100.00;97093.00;5068813;28;20404;-78
2022/06/09 06:55:29;;;;;;;35.15;14.05;;;14.00;99.90;;;13.23;100.00;97098.03;5058039;28;20406;-76
2022/06/09 06:57:55;;;;;;;42.47;14.32;;;14.10;99.90;;;13.25;100.00;97109.16;5063077;28;20399;-78
2022/06/09 07:00:24;;;;;;;29.42;12.68;;;14.20;99.90;;;13.36;100.00;97100.88;5059259;28;20444;-76
2022/06/09 07:02:50;;;;;;;33.97;12.43;;;14.20;99.90;;;13.52;100.00;97107.69;5067812;28;20481;-76
2022/06/09 07:05:20;;;;;;;31.27;10.63;;;14.30;99.90;;;13.42;100.00;97106.97;5061891;28;20906;-77
2022/06/09 07:07:46;;;;;;;25.95;8.57;;;14.30;99.90;;;13.34;100.00;97115.50;5066639;28;20407;-77
2022/06/09 07:10:13;;;;;;;22.63;8.63;;;14.20;99.90;;;13.14;100.00;97130.50;5067699;28;20566;-76
2022/06/09 07:12:40;;;;;;;27.20;9.07;;;14.10;99.90;;;13.11;100.00;97131.00;5069614;28;20471;-76
2022/06/09 07:15:08;;;;;;;22.63;9.43;;;14.00;99.90;;;13.13;100.00;97125.47;5070275;28;20414;-77
2022/06/09 07:17:35;;;;;;;27.67;9.38;;;14.00;99.90;;;13.12;100.00;97126.50;5072344;28;20450;-76
2022/06/09 07:20:00;;;;;;;26.63;9.35;;;14.00;99.90;;;13.10;100.00;97131.28;5069567;28;20494;-82
2022/06/09 07:22:26;;;;;;;25.48;9.00;;;14.00;99.90;;;13.09;100.00;97127.81;5072877;28;20461;-81
2022/06/09 07:24:55;;;;;;;25.73;9.45;;;14.00;99.90;;;13.18;100.00;97131.53;5072494;28;20416;-80
2022/06/09 07:27:23;;;;;;;19.65;8.93;;;14.10;99.90;;;13.24;100.00;97136.81;5072465;28;20410;-77
2022/06/09 07:29:50;;;;;;;21.23;8.02;;;14.10;99.90;;;13.30;100.00;97131.22;5072729;28;20482;-79
2022/06/09 07:32:16;;;;;;;27.63;8.70;;;14.20;99.90;;;13.38;100.00;97151.91;5072043;28;20391;-77
2022/06/09 07:34:42;;;;;;;24.40;6.97;;;14.30;99.90;;;13.31;100.00;97138.09;5072872;28;20887;-75
2022/06/09 07:37:09;;;;;;;21.90;6.40;;;14.20;99.90;;;13.42;100.00;97142.31;5073129;28;20400;-76
2022/06/09 07:39:35;;;;;;;20.27;7.00;;;14.30;99.90;;;13.55;100.00;97149.69;5072602;28;20421;-76
2022/06/09 07:42:01;;;;;;;17.05;5.65;;;14.40;99.90;;;13.45;100.00;97151.63;5072884;28;20411;-76
2022/06/09 07:44:29;;;;;;;20.27;6.22;;;14.40;99.90;;;13.61;100.00;97147.00;5072838;28;20396;-75
2022/06/09 07:46:55;;;;;;;28.92;6.85;;;14.40;99.90;;;13.48;100.00;97159.03;5072875;28;20482;-75
2022/06/09 07:49:21;;;;;;;20.90;5.93;;;14.30;99.90;;;13.61;100.00;97171.72;5072535;28;20407;-77
2022/06/09 07:51:47;;;;;;;21.23;5.70;;;14.40;99.90;;;13.63;100.00;97150.97;5072772;28;20430;-75
2022/06/09 07:54:13;;;;;;;13.20;5.50;;;14.50;99.90;;;13.66;100.00;97153.06;5072633;28;20480;-76
2022/06/09 07:56:39;;;;;;;15.30;5.10;;;14.50;99.90;;;13.72;100.00;97159.94;5072503;28;20396;-76
2022/06/09 07:59:06;;;;;;;18.05;5.03;;;14.50;99.90;;;13.59;100.00;97175.72;5071633;28;20400;-76
2022/06/09 08:01:34;;;;;;;19.17;4.63;;;14.50;99.90;;;13.64;100.00;97165.84;5062984;28;20492;-75
2022/06/09 08:04:00;;;;;;;16.85;4.78;;;14.50;99.90;;;13.70;100.00;97159.41;5060406;28;20429;-75
2022/06/09 08:06:27;;;;;;;14.93;4.20;;;14.50;99.90;;;13.88;100.00;97171.28;5059999;28;20405;-74
2022/06/09 08:08:57;;;;;;;20.38;4.05;;;14.70;99.90;;;13.63;100.00;97153.63;5052933;28;20758;-75
2022/06/09 08:11:24;;;;;;;14.50;3.93;;;14.70;99.90;;;13.99;100.00;97156.81;5068819;28;20476;-75
2022/06/09 08:13:50;;;;;;;11.75;3.63;;;14.70;99.90;;;14.02;100.00;97174.09;5057254;28;20408;-78
2022/06/09 08:16:16;;;;;;;13.63;4.00;;;14.80;99.90;;;14.00;100.00;97160.28;5062472;28;20916;-76
2022/06/09 08:18:43;;;;;;;16.45;4.00;;;14.80;99.90;;;14.00;100.00;97174.38;5076097;28;20410;-76
2022/06/09 08:21:09;;;;;;;15.03;3.80;;;14.90;99.90;;;14.23;100.00;97178.97;5061119;28;20860;-76
2022/06/09 08:23:35;;;;;;;11.15;3.45;;;15.00;99.90;;;14.44;100.00;97173.50;5062474;28;20492;-75
2022/06/09 08:26:05;;;;;;;13.27;3.60;;;15.20;99.90;;;14.76;100.00;97178.25;5060879;28;20898;-78
2022/06/09 08:28:37;;;;;;;13.75;3.40;;;15.50;99.90;;;14.89;100.00;97188.25;5065799;28;20475;-76
2022/06/09 08:31:04;;;;;;;10.10;3.17;;;15.60;99.90;;;14.96;100.00;97200.16;5070808;28;20423;-75
2022/06/09 08:33:30;;;;;;;11.50;2.85;;;15.70;99.90;;;14.52;100.00;97172.91;5057136;28;20394;-75
2022/06/09 08:35:58;;;;;;;14.55;3.05;;;15.40;99.90;;;14.63;100.00;97182.41;5051820;28;20402;-77
2022/06/09 08:38:24;;;;;;;13.18;3.30;;;15.40;99.90;;;14.91;100.00;97180.75;5051620;28;20429;-77
2022/06/09 08:40:59;;;;;;;8.35;2.50;;;15.60;99.90;;;15.26;100.00;97180.34;5050261;28;20488;-77
2022/06/09 08:43:37;;;;;;;7.90;2.30;;;15.90;99.90;;;15.43;100.00;97198.53;5051916;28;20425;-76
2022/06/09 08:46:24;;;;;;;9.80;2.60;;;16.10;99.90;;;15.40;100.00;97199.94;5051656;28;20409;-76
2022/06/09 08:48:55;;;;;;;17.95;2.83;;;16.20;99.90;;;15.09;100.00;97204.03;5051215;28;20394;-75
2022/06/09 08:51:38;;;;;;;5.93;2.20;;;15.90;99.90;;;15.53;100.00;97198.44;5051546;28;20393;-75
2022/06/09 08:54:12;;;;;;;15.65;2.50;;;16.20;99.90;;;15.80;100.00;97201.25;5051479;28;20532;-74
2022/06/09 08:56:39;;;;;;;5.95;1.88;;;16.60;99.90;;;16.15;100.00;97199.97;5051192;28;20409;-77
2022/06/09 08:59:13;;;;;;;7.07;1.80;;;16.80;99.90;;;16.26;100.00;97204.03;5050999;28;20896;-76
2022/06/09 09:01:44;;;;;;;9.07;1.90;;;16.90;99.90;;;16.32;100.00;97204.75;5061897;28;20415;-75
2022/06/09 09:04:20;;;;;;;8.90;1.95;;;17.00;99.90;;;15.93;100.00;97212.31;5056938;28;20398;-74
2022/06/09 09:06:57;;;;;;;8.93;2.00;;;16.80;99.90;;;15.80;100.00;97230.63;5059506;28;20398;-74
2022/06/09 09:09:27;;;;;;;10.77;2.13;;;16.60;99.90;;;15.84;100.00;97212.16;5059090;28;20814;-74
2022/06/09 09:12:05;;;;;;;8.07;2.30;;;16.50;99.90;;;16.13;100.00;97207.47;5062896;28;20435;-74
2022/06/09 09:14:43;;;;;;;6.97;1.95;;;16.70;99.90;;;16.32;100.00;97218.09;5054927;28;20412;-74
2022/06/09 09:17:19;;;;;;;6.28;1.95;;;16.90;99.90;;;16.56;100.00;97213.44;5050918;28;20409;-74
2022/06/09 09:19:54;;;;;;;7.78;1.80;;;17.20;99.90;;;16.17;100.00;97232.50;5063254;28;20431;-75
2022/06/09 09:22:36;;;;;;;8.57;1.92;;;17.10;99.90;;;16.29;100.00;97210.69;5069327;28;20465;-76
2022/06/09 09:25:23;;;;;;;8.65;1.80;;;17.00;99.90;;;16.16;100.00;97209.53;5068277;28;20438;-76
2022/06/09 09:27:57;;;;;;;3.70;1.50;;;17.10;99.90;;;16.45;100.00;97204.03;5074799;28;20400;-78
2022/06/09 09:30:30;;;;;;;14.43;2.30;;;17.10;99.90;;;16.55;100.00;97219.84;5071972;28;20976;-76
2022/06/09 09:32:57;;;;;;;6.90;1.77;;;17.30;99.90;;;16.89;100.00;97208.09;5066511;28;20400;-77
2022/06/09 09:35:31;;;;;;;7.55;2.00;;;17.50;99.90;;;16.89;100.00;97216.91;5072562;28;20404;-78
2022/06/09 09:38:01;;;;;;;6.75;1.70;;;17.70;99.90;;;16.80;100.00;97223.22;5086458;28;20756;-74
2022/06/09 09:40:31;;;;;;;7.63;2.00;;;17.50;99.90;;;16.91;100.00;97221.97;5090439;28;20534;-74
2022/06/09 09:43:00;;;;;;;6.25;1.85;;;17.60;99.90;;;16.98;100.00;97223.16;5090529;28;20410;-75
2022/06/09 09:45:35;;;;;;;7.78;1.80;;;17.70;99.90;;;16.99;100.00;97222.03;5078709;28;20419;-75
2022/06/09 09:48:05;;;;;;;6.15;1.85;;;17.70;99.90;;;17.35;100.00;97216.81;5061446;28;20436;-74
2022/06/09 09:50:48;;;;;;;6.00;1.88;;;18.00;99.90;;;17.46;100.00;97219.28;5060537;28;20542;-74
2022/06/09 09:53:29;;;;;;;5.00;1.55;;;18.10;99.90;;;17.20;100.00;97232.38;5066556;28;20456;-76
2022/06/09 09:55:57;;;;;;;7.25;1.88;;;18.00;99.90;;;16.97;93.08;97226.13;5069166;28;20488;-75
2022/06/09 09:58:38;;;;;;;8.23;1.85;;;17.70;99.90;;;16.93;95.93;97227.78;5066466;28;20406;-75
2022/06/09 10:01:24;;;;;;;6.70;1.70;;;17.60;99.90;;;16.99;100.00;97223.91;5066845;28;20508;-74
2022/06/09 10:09:36;;;;;;;3.85;1.17;;;18.30;99.90;;;17.92;100.00;97227.94;5072535;28;20387;-78
2022/06/09 10:12:08;;;;;;;4.13;1.33;;;18.70;99.90;;;18.38;100.00;97225.00;5070187;28;20478;-76
2022/06/09 10:14:43;;;;;;;6.20;1.10;;;19.00;99.90;;;18.46;100.00;97223.50;5077724;28;20486;-75
2022/06/09 10:17:25;;;;;;;3.78;1.30;;;19.10;99.90;;;18.15;100.00;97247.53;5089497;28;20398;-74
2022/06/09 10:20:07;;;;;;;7.18;1.45;;;18.90;99.90;;;18.04;100.00;97240.84;5076570;28;20762;-74
2022/06/09 10:22:37;;;;;;;10.35;1.77;;;18.80;99.90;;;17.75;94.27;97236.59;5075073;28;20531;-74
2022/06/09 10:25:20;;;;;;;9.03;1.50;;;18.60;99.90;;;18.06;100.00;97246.66;5074969;28;20400;-74
2022/06/09 10:27:53;;;;;;;5.45;1.40;;;18.70;99.90;;;18.56;100.00;97242.03;5081070;28;20405;-74
2022/06/09 10:30:25;;;;;;;2.97;1.20;;;19.10;99.90;;;19.22;100.00;97251.84;5088385;28;20461;-75